Time;durP1;ratioP1;P1;durP2;ratioP2;P2;SDS_P1;SDS_P2;PMS_P1;PMS_P2;Temp;Humidity;BMP_temperature;BMP_pressure;BME280_temperature;BME280_humidity;BME280_pressure;Samples;Min_cycle;Max_cycle;Signal;HPM_P1;HPM_P2
2024/01/16 00:01:44;;;;;;;2.47;2.07;;;12.60;84.40;;;;;;4907571;29;20705;-91
2024/01/16 00:04:10;;;;;;;2.50;1.73;;;12.60;84.20;;;;;;4917697;29;20179;-91
2024/01/16 00:06:43;;;;;;;3.00;2.10;;;12.60;84.30;;;;;;4909051;29;20201;-91
2024/01/16 00:09:11;;;;;;;2.37;1.80;;;12.60;84.20;;;;;;4919477;29;20181;-91
2024/01/16 00:11:42;;;;;;;3.57;1.97;;;12.60;84.30;;;;;;4909723;29;20183;-91
2024/01/16 00:14:07;;;;;;;2.43;1.90;;;12.60;84.20;;;;;;4919804;29;20646;-91
2024/01/16 00:16:33;;;;;;;1.97;1.70;;;12.50;84.20;;;;;;4907981;29;20185;-91
2024/01/16 00:18:59;;;;;;;2.90;1.93;;;12.60;84.20;;;;;;4920788;29;20213;-90
2024/01/16 00:21:25;;;;;;;3.13;1.90;;;12.50;84.10;;;;;;4908386;29;20277;-90
2024/01/16 00:23:51;;;;;;;2.47;1.90;;;12.50;84.10;;;;;;4919574;29;20197;-90
2024/01/16 00:26:23;;;;;;;2.13;1.77;;;12.50;84.10;;;;;;4909338;29;20441;-91
2024/01/16 00:28:49;;;;;;;3.37;2.00;;;12.50;84.10;;;;;;4917016;29;20216;-90
2024/01/16 00:31:15;;;;;;;2.20;1.80;;;12.50;84.10;;;;;;4914748;29;20278;-90
2024/01/16 00:33:41;;;;;;;2.90;1.80;;;12.50;84.10;;;;;;4903088;29;20642;-90
2024/01/16 00:36:06;;;;;;;2.80;2.00;;;12.50;84.20;;;;;;4903347;29;20209;-90
2024/01/16 00:38:35;;;;;;;2.60;1.93;;;12.50;84.10;;;;;;4905069;29;20185;-90
2024/01/16 00:41:03;;;;;;;2.67;1.70;;;12.50;84.10;;;;;;4901704;29;20244;-90
2024/01/16 00:43:29;;;;;;;2.30;1.90;;;12.50;84.10;;;;;;4905925;29;20184;-90
2024/01/16 00:45:54;;;;;;;2.13;1.60;;;12.50;84.10;;;;;;4900366;29;20177;-90
2024/01/16 00:48:20;;;;;;;2.30;1.70;;;12.50;84.00;;;;;;4909549;29;20532;-90
2024/01/16 00:50:49;;;;;;;1.93;1.70;;;12.50;83.90;;;;;;4899481;29;20177;-91
2024/01/16 00:53:17;;;;;;;2.67;1.73;;;12.50;83.90;;;;;;4906772;29;20554;-90
2024/01/16 00:55:43;;;;;;;1.90;1.70;;;12.50;84.10;;;;;;4917412;29;20195;-90
2024/01/16 00:58:08;;;;;;;2.20;1.80;;;12.50;84.00;;;;;;4910210;29;20185;-90
2024/01/16 01:00:37;;;;;;;2.37;1.80;;;12.50;84.00;;;;;;4899525;29;20301;-90
2024/01/16 01:03:06;;;;;;;3.07;1.70;;;12.50;83.90;;;;;;4910977;29;20636;-90
2024/01/16 01:05:32;;;;;;;3.63;1.70;;;12.50;83.90;;;;;;4898325;29;20192;-91
2024/01/16 01:07:58;;;;;;;2.20;1.80;;;12.50;84.00;;;;;;4910579;29;20172;-90
2024/01/16 01:10:24;;;;;;;1.70;1.60;;;12.50;83.80;;;;;;4898771;29;20177;-90
2024/01/16 01:12:54;;;;;;;2.10;1.80;;;12.50;83.80;;;;;;4901363;29;20174;-90
2024/01/16 01:15:20;;;;;;;2.87;1.83;;;12.50;83.70;;;;;;4917233;29;20516;-91
2024/01/16 01:17:54;;;;;;;2.07;1.70;;;12.50;83.90;;;;;;4911811;29;20169;-90
2024/01/16 01:20:20;;;;;;;3.47;2.10;;;12.50;83.90;;;;;;4915461;29;20179;-90
2024/01/16 01:22:46;;;;;;;3.90;1.80;;;12.50;83.90;;;;;;4912020;29;20170;-90
2024/01/16 01:25:12;;;;;;;2.50;1.70;;;12.50;83.80;;;;;;4911396;29;20429;-91
2024/01/16 01:27:39;;;;;;;2.80;1.50;;;12.50;83.90;;;;;;4914003;29;20254;-91
2024/01/16 01:30:07;;;;;;;3.50;1.67;;;12.50;83.70;;;;;;4909073;29;20331;-91
2024/01/16 01:32:32;;;;;;;2.43;1.97;;;12.50;83.70;;;;;;4916049;29;20271;-90
2024/01/16 01:34:59;;;;;;;2.10;1.43;;;12.50;83.70;;;;;;4907019;29;20275;-90
2024/01/16 01:37:28;;;;;;;2.40;1.60;;;12.50;83.70;;;;;;4915418;29;20207;-90
2024/01/16 01:39:54;;;;;;;3.63;2.43;;;12.50;83.70;;;;;;4906334;29;20523;-90
2024/01/16 01:42:20;;;;;;;2.00;1.47;;;12.50;83.80;;;;;;4916257;29;20470;-91
2024/01/16 01:44:46;;;;;;;1.60;1.50;;;12.50;83.70;;;;;;4906308;29;20247;-91
2024/01/16 01:47:11;;;;;;;3.00;1.60;;;12.50;83.50;;;;;;4917649;29;20181;-90
2024/01/16 01:49:38;;;;;;;1.83;1.43;;;12.50;83.50;;;;;;4906058;29;20179;-90
2024/01/16 01:52:04;;;;;;;2.33;1.77;;;12.50;83.70;;;;;;4916743;29;20179;-90
2024/01/16 01:54:33;;;;;;;3.63;1.70;;;12.50;83.50;;;;;;4905174;29;20178;-90
2024/01/16 01:56:59;;;;;;;3.27;1.73;;;12.40;83.50;;;;;;4916174;29;20179;-94
2024/01/16 01:59:25;;;;;;;2.83;1.43;;;12.40;83.40;;;;;;4906164;29;20742;-91
2024/01/16 02:01:53;;;;;;;2.20;1.50;;;12.40;83.50;;;;;;4913182;29;20577;-90
2024/01/16 02:04:20;;;;;;;3.00;1.70;;;12.50;83.60;;;;;;4908885;29;20457;-92
2024/01/16 02:06:46;;;;;;;3.23;1.50;;;12.40;83.50;;;;;;4911511;29;20168;-90
2024/01/16 02:09:13;;;;;;;2.30;1.50;;;12.40;83.70;;;;;;4911706;29;20441;-90
2024/01/16 02:11:41;;;;;;;1.77;1.50;;;12.50;83.90;;;;;;4909524;29;20211;-90
2024/01/16 02:14:08;;;;;;;1.50;1.40;;;12.40;83.60;;;;;;4913479;29;20490;-91
2024/01/16 02:16:39;;;;;;;2.23;1.40;;;12.40;83.40;;;;;;4908702;29;20174;-90
2024/01/16 02:19:06;;;;;;;2.10;1.53;;;12.40;83.40;;;;;;4915993;29;20203;-90
2024/01/16 02:21:50;;;;;;;2.17;1.50;;;12.40;83.50;;;;;;4905680;29;20612;-90
2024/01/16 02:24:18;;;;;;;3.10;1.77;;;12.40;83.40;;;;;;4913827;29;20467;-91
2024/01/16 02:26:45;;;;;;;2.00;1.23;;;12.40;83.40;;;;;;4905424;29;20267;-91
2024/01/16 02:29:11;;;;;;;3.17;2.07;;;12.40;83.40;;;;;;4914996;29;20544;-91
2024/01/16 02:31:37;;;;;;;2.30;1.53;;;12.40;83.50;;;;;;4905795;29;20555;-91
2024/01/16 02:34:06;;;;;;;3.13;1.70;;;12.40;83.40;;;;;;4915640;29;20568;-91
2024/01/16 02:36:33;;;;;;;2.30;1.40;;;12.40;83.50;;;;;;4905435;29;20179;-91
2024/01/16 02:38:59;;;;;;;2.23;1.70;;;12.40;83.50;;;;;;4917446;29;20429;-91
2024/01/16 02:41:25;;;;;;;1.90;1.40;;;12.40;83.40;;;;;;4904065;29;20209;-91
2024/01/16 02:43:51;;;;;;;2.10;1.60;;;12.40;83.50;;;;;;4915703;29;20282;-91
2024/01/16 02:46:17;;;;;;;3.13;1.50;;;12.40;83.50;;;;;;4904974;29;20214;-90
2024/01/16 02:48:43;;;;;;;1.70;1.57;;;12.40;83.50;;;;;;4916655;29;20268;-91
2024/01/16 02:51:09;;;;;;;2.30;1.70;;;12.40;83.60;;;;;;4907309;29;20569;-91
2024/01/16 02:53:35;;;;;;;1.70;1.50;;;12.40;83.50;;;;;;4914702;29;20184;-91
2024/01/16 02:56:01;;;;;;;2.33;1.40;;;12.40;83.50;;;;;;4908782;29;20189;-91
2024/01/16 02:58:28;;;;;;;1.70;1.40;;;12.40;83.50;;;;;;4911153;29;20446;-91
2024/01/16 03:00:54;;;;;;;2.50;1.50;;;12.40;83.60;;;;;;4911474;29;20210;-91
2024/01/16 03:03:20;;;;;;;1.90;1.57;;;12.40;83.60;;;;;;4912392;29;20179;-91
2024/01/16 03:05:49;;;;;;;1.97;1.47;;;12.40;83.50;;;;;;4917447;29;20190;-91
2024/01/16 03:08:15;;;;;;;2.37;1.80;;;12.40;83.60;;;;;;4911056;29;20208;-91
2024/01/16 03:10:41;;;;;;;2.30;1.77;;;12.40;83.50;;;;;;4915830;29;20441;-91
2024/01/16 03:13:07;;;;;;;1.70;1.50;;;12.40;83.50;;;;;;4909053;29;20183;-91
2024/01/16 03:15:33;;;;;;;1.70;1.60;;;12.40;83.60;;;;;;4898636;29;20468;-91
2024/01/16 03:18:00;;;;;;;1.93;1.73;;;12.40;83.50;;;;;;4908910;29;20191;-91
2024/01/16 03:20:27;;;;;;;2.63;1.50;;;12.40;83.50;;;;;;4898514;29;20850;-91
2024/01/16 03:22:53;;;;;;;1.83;1.53;;;12.40;83.50;;;;;;4910177;29;20183;-91
2024/01/16 03:25:19;;;;;;;1.90;1.67;;;12.40;83.50;;;;;;4898954;29;20410;-91
2024/01/16 03:27:45;;;;;;;2.33;1.63;;;12.40;83.50;;;;;;4911268;29;20192;-91
2024/01/16 03:30:12;;;;;;;3.03;1.70;;;12.40;83.60;;;;;;4901401;29;20182;-91
2024/01/16 03:32:38;;;;;;;2.77;1.70;;;12.40;83.60;;;;;;4911236;29;20197;-91
2024/01/16 03:35:07;;;;;;;2.47;1.50;;;12.40;83.60;;;;;;4904495;29;20471;-91
2024/01/16 03:37:34;;;;;;;2.57;1.83;;;12.40;83.60;;;;;;4904343;29;20502;-91
2024/01/16 03:40:00;;;;;;;2.47;2.00;;;12.40;83.60;;;;;;4916935;29;20456;-91
2024/01/16 03:42:27;;;;;;;1.70;1.57;;;12.40;83.50;;;;;;4912796;29;20630;-91
2024/01/16 03:44:53;;;;;;;1.90;1.60;;;12.40;83.60;;;;;;4915172;29;20224;-91
2024/01/16 03:47:19;;;;;;;2.10;1.70;;;12.40;83.50;;;;;;4914282;29;20191;-91
2024/01/16 03:49:46;;;;;;;2.60;1.80;;;12.40;83.70;;;;;;4912970;29;20175;-91
2024/01/16 03:52:12;;;;;;;2.30;1.80;;;12.40;83.50;;;;;;4913504;29;20181;-91
2024/01/16 03:54:38;;;;;;;2.37;1.57;;;12.40;83.60;;;;;;4908560;29;20194;-91
2024/01/16 03:57:04;;;;;;;1.73;1.40;;;12.40;83.60;;;;;;4899123;29;20190;-91
2024/01/16 03:59:32;;;;;;;2.27;1.53;;;12.40;83.60;;;;;;4908827;29;20203;-91
2024/01/16 04:01:58;;;;;;;1.50;1.40;;;12.40;83.50;;;;;;4897899;29;20290;-92
2024/01/16 04:04:24;;;;;;;2.47;1.53;;;12.40;83.60;;;;;;4909897;29;20182;-91
2024/01/16 04:06:50;;;;;;;1.80;1.63;;;12.40;83.50;;;;;;4898929;29;20177;-91
2024/01/16 04:09:16;;;;;;;1.90;1.70;;;12.40;83.50;;;;;;4910432;29;20239;-91
2024/01/16 04:11:41;;;;;;;1.70;1.60;;;12.40;83.60;;;;;;4898884;29;20185;-91
2024/01/16 04:14:07;;;;;;;1.80;1.63;;;12.40;83.60;;;;;;4908352;29;20184;-91
2024/01/16 04:16:33;;;;;;;1.90;1.70;;;12.40;83.50;;;;;;4898733;29;20200;-91
2024/01/16 04:18:59;;;;;;;3.20;1.83;;;12.40;83.70;;;;;;4906549;29;20183;-92
2024/01/16 04:21:25;;;;;;;2.03;1.80;;;12.40;83.50;;;;;;4902683;29;20220;-91
2024/01/16 04:23:52;;;;;;;1.87;1.50;;;12.40;83.60;;;;;;4904137;29;20177;-91
2024/01/16 04:26:18;;;;;;;1.90;1.60;;;12.40;83.60;;;;;;4902900;29;20456;-91
2024/01/16 04:28:44;;;;;;;1.77;1.60;;;12.40;83.60;;;;;;4900140;29;20189;-92
2024/01/16 04:31:11;;;;;;;1.93;1.50;;;12.40;83.50;;;;;;4910393;29;20181;-91
2024/01/16 04:33:37;;;;;;;2.07;1.70;;;12.40;83.50;;;;;;4915314;29;20288;-91
2024/01/16 04:36:03;;;;;;;2.23;1.70;;;12.40;83.50;;;;;;4907386;29;20196;-92
2024/01/16 04:38:29;;;;;;;2.47;1.90;;;12.40;83.50;;;;;;4915425;29;20178;-92
2024/01/16 04:40:55;;;;;;;2.03;1.63;;;12.40;83.50;;;;;;4909730;29;20219;-92
2024/01/16 04:43:21;;;;;;;1.70;1.60;;;12.40;83.40;;;;;;4898034;29;20253;-92
2024/01/16 04:46:10;;;;;;;1.63;1.47;;;12.40;83.40;;;;;;4908977;29;20214;-92
2024/01/16 04:48:51;;;;;;;1.90;1.70;;;12.40;83.40;;;;;;4897959;29;20248;-92
2024/01/16 04:51:19;;;;;;;2.63;1.73;;;12.40;83.30;;;;;;4908006;29;20185;-92
2024/01/16 04:53:46;;;;;;;2.03;1.80;;;12.40;83.40;;;;;;4897746;29;20191;-92
2024/01/16 04:56:12;;;;;;;1.90;1.63;;;12.40;83.40;;;;;;4907023;29;20217;-93
2024/01/16 04:58:38;;;;;;;1.90;1.70;;;12.40;83.40;;;;;;4896412;29;20197;-92
2024/01/16 05:01:03;;;;;;;2.40;1.80;;;12.30;83.30;;;;;;4908839;29;20586;-92
2024/01/16 05:03:29;;;;;;;2.40;1.77;;;12.30;83.20;;;;;;4896964;29;20200;-91
2024/01/16 05:05:56;;;;;;;2.70;1.70;;;12.30;83.20;;;;;;4907798;29;20183;-92
2024/01/16 05:08:22;;;;;;;2.30;2.10;;;12.40;83.30;;;;;;4914967;29;20184;-92
2024/01/16 05:10:48;;;;;;;1.77;1.60;;;12.40;83.30;;;;;;4906409;29;20207;-92
2024/01/16 05:13:19;;;;;;;1.93;1.67;;;12.40;83.30;;;;;;4914336;29;20281;-92
2024/01/16 05:15:48;;;;;;;1.83;1.50;;;12.30;83.20;;;;;;4907077;29;20462;-92
2024/01/16 05:18:14;;;;;;;2.57;1.80;;;12.30;83.20;;;;;;4909960;29;20427;-91
2024/01/16 05:20:40;;;;;;;1.63;1.53;;;12.30;83.30;;;;;;4909080;29;20240;-92
2024/01/16 05:23:07;;;;;;;1.67;1.57;;;12.30;83.30;;;;;;4910392;29;20186;-92
2024/01/16 05:25:33;;;;;;;1.60;1.50;;;12.30;83.20;;;;;;4912983;29;20178;-91
2024/01/16 05:28:01;;;;;;;1.73;1.60;;;12.30;83.20;;;;;;4907192;29;20192;-91
2024/01/16 05:30:27;;;;;;;2.03;1.70;;;12.30;83.20;;;;;;4914066;29;20186;-92
2024/01/16 05:32:54;;;;;;;2.43;1.70;;;12.30;83.20;;;;;;4906048;29;20391;-92
2024/01/16 05:35:24;;;;;;;2.07;1.57;;;12.30;83.20;;;;;;4915681;29;20589;-91
2024/01/16 05:37:52;;;;;;;2.57;1.77;;;12.30;83.20;;;;;;4907518;29;20233;-91
2024/01/16 05:40:18;;;;;;;1.40;1.30;;;12.30;83.30;;;;;;4898253;29;20181;-92
2024/01/16 05:42:45;;;;;;;1.67;1.50;;;12.30;83.40;;;;;;4909184;29;20206;-92
2024/01/16 05:45:14;;;;;;;2.03;1.60;;;12.40;83.50;;;;;;4896811;29;20191;-92
2024/01/16 05:47:41;;;;;;;1.67;1.57;;;12.30;83.60;;;;;;4908941;29;20174;-92
2024/01/16 05:50:08;;;;;;;2.33;1.60;;;12.30;83.70;;;;;;4896057;29;20183;-91
2024/01/16 05:52:34;;;;;;;3.10;1.50;;;12.30;84.00;;;;;;4906753;29;20447;-91
2024/01/16 05:58:15;;;;;;;1.90;1.60;;;12.30;84.30;;;;;;4908337;29;20207;-91
2024/01/16 06:01:05;;;;;;;1.70;1.50;;;12.30;84.30;;;;;;4896419;29;20992;-93
2024/01/16 06:03:31;;;;;;;2.13;1.60;;;12.40;85.70;;;;;;4902448;29;20189;-93
2024/01/16 06:06:00;;;;;;;2.23;1.70;;;12.40;85.90;;;;;;4893409;29;20181;-93
2024/01/16 06:12:27;;;;;;;2.77;1.70;;;12.40;86.20;;;;;;4904569;29;20199;-93
2024/01/16 06:15:38;;;;;;;2.87;1.87;;;12.40;86.30;;;;;;4886172;29;20196;-93
2024/01/16 06:18:37;;;;;;;2.23;1.80;;;12.40;86.30;;;;;;4896763;29;20181;-93
2024/01/16 06:21:13;;;;;;;2.33;1.50;;;12.40;86.30;;;;;;4892872;29;20484;-92
2024/01/16 06:23:39;;;;;;;1.77;1.47;;;12.40;86.20;;;;;;4906224;29;20173;-93
2024/01/16 06:26:07;;;;;;;2.43;1.70;;;12.40;86.30;;;;;;4891453;29;20188;-93
2024/01/16 06:29:23;;;;;;;2.23;1.87;;;12.40;86.30;;;;;;4905869;29;20173;-93
2024/01/16 06:31:56;;;;;;;3.93;1.77;;;12.40;86.20;;;;;;4895516;29;20190;-93
2024/01/16 06:34:45;;;;;;;2.10;1.80;;;12.50;86.20;;;;;;4898997;29;20192;-92
2024/01/16 06:37:16;;;;;;;2.50;1.70;;;12.50;86.00;;;;;;4880863;29;20189;-92
2024/01/16 06:40:03;;;;;;;1.77;1.60;;;12.50;86.00;;;;;;4904700;29;20308;-92
2024/01/16 06:42:33;;;;;;;1.80;1.60;;;12.50;86.10;;;;;;4892020;29;20573;-93
2024/01/16 06:45:06;;;;;;;2.13;1.77;;;12.50;86.00;;;;;;4902975;29;20186;-93
2024/01/16 06:47:41;;;;;;;3.37;1.40;;;12.50;85.90;;;;;;4894539;29;20657;-92
2024/01/16 06:50:28;;;;;;;2.27;1.67;;;12.50;85.90;;;;;;4896288;29;20283;-92
2024/01/16 06:52:55;;;;;;;1.60;1.50;;;12.50;85.90;;;;;;4909462;29;20290;-93
2024/01/16 06:55:21;;;;;;;4.33;1.70;;;12.50;85.90;;;;;;4900715;29;20173;-93
2024/01/16 06:57:47;;;;;;;1.63;1.53;;;12.50;85.80;;;;;;4910394;29;20315;-93
2024/01/16 07:00:37;;;;;;;2.00;1.80;;;12.50;85.80;;;;;;4906810;29;20249;-93
2024/01/16 07:03:30;;;;;;;2.60;1.70;;;12.50;85.80;;;;;;4894473;29;20185;-93
2024/01/16 07:06:00;;;;;;;2.07;1.63;;;12.50;85.80;;;;;;4901820;29;20184;-93
2024/01/16 07:08:48;;;;;;;2.10;1.47;;;12.50;86.00;;;;;;4910265;29;20187;-93
2024/01/16 07:11:34;;;;;;;2.23;1.53;;;12.50;85.90;;;;;;4901230;29;20174;-93
2024/01/16 07:14:03;;;;;;;2.20;1.73;;;12.50;86.00;;;;;;4906325;29;20183;-92
2024/01/16 07:20:18;;;;;;;3.03;1.70;;;12.50;85.90;;;;;;4904238;29;20223;-93
2024/01/16 07:23:51;;;;;;;2.07;1.67;;;12.50;86.10;;;;;;4891067;29;20222;-93
2024/01/16 07:27:34;;;;;;;1.97;1.40;;;12.50;86.10;;;;;;4836723;29;20397;-93
2024/01/16 07:30:40;;;;;;;2.40;1.70;;;12.50;86.10;;;;;;4815929;29;20383;-92
2024/01/16 07:37:22;;;;;;;2.27;1.53;;;12.60;86.30;;;;;;4790460;29;20209;-93
2024/01/16 07:43:01;;;;;;;3.03;1.70;;;12.60;86.30;;;;;;4774714;29;20306;-93
2024/01/16 07:46:20;;;;;;;3.37;1.77;;;12.60;86.20;;;;;;4788048;29;20206;-93
2024/01/16 07:56:06;;;;;;;2.60;1.70;;;12.60;86.10;;;;;;4788021;29;20212;-93
2024/01/16 08:06:17;;;;;;;3.37;1.67;;;12.60;85.80;;;;;;4799595;29;20220;-93
2024/01/16 08:09:26;;;;;;;3.63;1.70;;;12.60;85.90;;;;;;4778886;30;20198;-93
2024/01/16 08:12:44;;;;;;;3.50;1.70;;;12.60;85.70;;;;;;4765266;30;20225;-93
2024/01/16 08:19:53;;;;;;;3.37;1.90;;;12.70;85.80;;;;;;4807260;29;20674;-93
2024/01/16 08:26:40;;;;;;;3.70;2.20;;;12.70;86.00;;;;;;4729847;30;20248;-93
2024/01/16 08:33:17;;;;;;;3.50;1.73;;;12.80;85.60;;;;;;4745077;30;20374;-93
2024/01/16 08:43:42;;;;;;;4.87;2.40;;;12.80;84.00;;;;;;4756872;30;20194;-93
2024/01/16 08:50:02;;;;;;;4.47;2.03;;;12.90;82.90;;;;;;4777122;30;20205;-94
2024/01/16 09:00:30;;;;;;;5.83;1.90;;;13.00;80.70;;;;;;4760741;29;20236;-93
2024/01/16 09:03:54;;;;;;;3.73;2.10;;;13.00;80.70;;;;;;4774840;30;20687;-93
2024/01/16 09:13:25;;;;;;;2.87;1.83;;;13.10;80.10;;;;;;4800381;29;20228;-91
2024/01/16 09:15:51;;;;;;;4.47;1.90;;;13.10;80.10;;;;;;4871549;29;20199;-91
2024/01/16 09:18:16;;;;;;;3.17;1.73;;;13.00;80.00;;;;;;4878970;29;20209;-92
2024/01/16 09:20:43;;;;;;;2.60;1.60;;;13.00;80.00;;;;;;4879293;29;20229;-93
2024/01/16 09:23:12;;;;;;;3.70;1.80;;;13.00;80.10;;;;;;4889404;29;20346;-92
2024/01/16 09:25:38;;;;;;;3.40;2.07;;;13.00;80.10;;;;;;4903241;29;20190;-92
2024/01/16 09:28:28;;;;;;;3.47;1.87;;;13.00;80.10;;;;;;4910346;29;20658;-92
2024/01/16 09:30:56;;;;;;;2.43;1.67;;;13.00;80.10;;;;;;4901132;29;20174;-92
2024/01/16 09:33:25;;;;;;;2.47;1.70;;;13.00;80.10;;;;;;4914339;29;20278;-92
2024/01/16 09:35:52;;;;;;;2.83;1.70;;;13.00;80.20;;;;;;4901700;29;20397;-92
2024/01/16 09:38:18;;;;;;;2.67;1.60;;;13.00;80.20;;;;;;4912060;29;20446;-92
2024/01/16 09:40:46;;;;;;;3.60;1.83;;;13.00;80.20;;;;;;4903520;29;20282;-92
2024/01/16 09:43:14;;;;;;;2.73;1.57;;;13.00;80.30;;;;;;4914206;29;20295;-92
2024/01/16 09:45:41;;;;;;;3.13;1.93;;;13.00;80.20;;;;;;4907255;29;20206;-93
2024/01/16 09:48:08;;;;;;;2.80;1.70;;;13.00;80.20;;;;;;4894938;29;20214;-92
2024/01/16 09:50:34;;;;;;;3.43;1.53;;;13.00;80.00;;;;;;4906059;29;20192;-92
2024/01/16 09:53:00;;;;;;;4.03;1.70;;;13.00;80.10;;;;;;4893061;29;20181;-92
2024/01/16 09:55:38;;;;;;;1.97;1.53;;;13.00;80.00;;;;;;4900416;29;20246;-92
2024/01/16 09:58:09;;;;;;;2.53;1.50;;;13.00;80.00;;;;;;4893106;29;20201;-92
2024/01/16 10:00:36;;;;;;;2.73;1.73;;;13.00;80.00;;;;;;4904464;29;20238;-92
2024/01/16 10:03:05;;;;;;;2.10;1.53;;;13.10;80.00;;;;;;4895302;29;20174;-92
2024/01/16 10:05:33;;;;;;;3.47;1.80;;;13.10;80.00;;;;;;4897942;29;20616;-92
2024/01/16 10:08:00;;;;;;;3.23;1.50;;;13.10;80.00;;;;;;4909801;29;20210;-92
2024/01/16 10:10:28;;;;;;;2.60;1.60;;;13.10;79.90;;;;;;4905028;29;20233;-92
2024/01/16 10:12:59;;;;;;;1.90;1.50;;;13.10;79.90;;;;;;4898358;29;20178;-92
2024/01/16 10:15:44;;;;;;;2.40;1.60;;;13.10;80.00;;;;;;4896229;29;20192;-92
2024/01/16 10:18:24;;;;;;;3.50;1.60;;;13.10;79.90;;;;;;4902910;29;20175;-92
2024/01/16 10:20:50;;;;;;;3.03;1.70;;;13.10;79.80;;;;;;4901850;29;20788;-92
2024/01/16 10:23:27;;;;;;;2.70;1.47;;;13.10;79.70;;;;;;4903871;29;20245;-92
2024/01/16 10:26:09;;;;;;;3.37;1.67;;;13.20;79.60;;;;;;4908600;29;20166;-92
2024/01/16 10:28:37;;;;;;;2.33;1.60;;;13.20;79.60;;;;;;4909664;29;20204;-92
2024/01/16 10:31:04;;;;;;;2.07;1.50;;;13.20;79.60;;;;;;4908339;29;20175;-93
2024/01/16 10:33:31;;;;;;;3.67;1.60;;;13.20;79.60;;;;;;4896442;29;20366;-91
2024/01/16 10:36:13;;;;;;;2.90;1.60;;;13.20;79.50;;;;;;4896165;29;20174;-91
2024/01/16 10:38:44;;;;;;;2.00;1.50;;;13.20;79.40;;;;;;4896935;29;20195;-91
2024/01/16 10:41:12;;;;;;;2.53;1.60;;;13.20;79.40;;;;;;4891978;29;20198;-91
2024/01/16 10:43:38;;;;;;;2.57;1.70;;;13.20;79.40;;;;;;4896569;29;20227;-91
2024/01/16 10:46:15;;;;;;;2.70;1.50;;;13.20;79.30;;;;;;4892435;29;20181;-92
2024/01/16 10:48:58;;;;;;;2.10;1.50;;;13.20;79.20;;;;;;4897725;29;20171;-91
2024/01/16 10:51:26;;;;;;;2.70;1.30;;;13.30;79.20;;;;;;4893160;29;20189;-91
2024/01/16 10:54:00;;;;;;;2.03;1.50;;;13.30;79.20;;;;;;4897560;29;20180;-91
2024/01/16 10:56:30;;;;;;;3.17;1.60;;;13.30;79.10;;;;;;4892531;29;20275;-91
2024/01/16 10:59:21;;;;;;;2.13;1.40;;;13.30;79.00;;;;;;4898716;29;20181;-91
2024/01/16 11:01:55;;;;;;;2.00;1.30;;;13.30;78.80;;;;;;4892301;29;20478;-91
2024/01/16 11:04:21;;;;;;;2.27;1.50;;;13.40;79.30;;;;;;4897170;29;20177;-91
2024/01/16 11:06:50;;;;;;;2.67;1.80;;;13.40;78.50;;;;;;4891971;29;20220;-91
2024/01/16 11:09:17;;;;;;;2.63;1.50;;;13.40;78.30;;;;;;4897340;29;20289;-91
2024/01/16 11:11:45;;;;;;;2.60;1.57;;;13.40;78.20;;;;;;4903009;29;20171;-91
2024/01/16 11:14:13;;;;;;;2.67;1.60;;;13.40;78.20;;;;;;4899542;29;20219;-91
2024/01/16 11:16:40;;;;;;;2.90;1.50;;;13.40;78.10;;;;;;4905707;29;20277;-91
2024/01/16 11:19:09;;;;;;;1.70;1.37;;;13.50;78.10;;;;;;4896704;29;20284;-91
2024/01/16 11:21:36;;;;;;;1.77;1.30;;;13.50;78.00;;;;;;4904675;29;20207;-91
2024/01/16 11:24:04;;;;;;;1.83;1.40;;;13.50;78.00;;;;;;4899654;29;20551;-91
2024/01/16 11:26:32;;;;;;;2.10;1.33;;;13.50;78.00;;;;;;4911482;29;20184;-92
2024/01/16 11:29:22;;;;;;;2.00;1.57;;;13.40;77.90;;;;;;4908513;29;20402;-92
2024/01/16 11:31:48;;;;;;;2.57;1.70;;;13.50;77.80;;;;;;4885109;29;20183;-92
2024/01/16 11:34:14;;;;;;;3.37;1.77;;;13.50;77.80;;;;;;4906299;29;20217;-91
2024/01/16 11:36:54;;;;;;;2.10;1.50;;;13.50;77.80;;;;;;4894288;29;20490;-92
2024/01/16 11:39:25;;;;;;;2.30;1.50;;;13.50;77.80;;;;;;4906813;29;20175;-92
2024/01/16 11:41:56;;;;;;;3.33;1.67;;;13.50;77.80;;;;;;4895974;29;20459;-91
2024/01/16 11:44:41;;;;;;;2.73;1.70;;;13.50;77.80;;;;;;4900179;29;20172;-91
2024/01/16 11:47:08;;;;;;;2.00;1.40;;;13.50;77.80;;;;;;4914599;29;20211;-91
2024/01/16 11:49:39;;;;;;;2.67;1.47;;;13.50;77.80;;;;;;4908308;29;20276;-92
2024/01/16 11:52:06;;;;;;;2.70;1.60;;;13.50;77.80;;;;;;4893917;29;20179;-91
2024/01/16 11:54:33;;;;;;;2.40;1.40;;;13.50;77.80;;;;;;4896877;29;20181;-91
2024/01/16 11:57:17;;;;;;;2.37;1.33;;;13.50;77.80;;;;;;4895472;29;20178;-91
2024/01/16 12:00:00;;;;;;;2.67;1.60;;;13.50;77.80;;;;;;4902880;29;20208;-92
2024/01/16 12:02:42;;;;;;;2.73;1.37;;;13.50;77.80;;;;;;4895512;29;20449;-91
2024/01/16 12:05:11;;;;;;;2.50;1.57;;;13.50;77.80;;;;;;4905732;29;20180;-91
2024/01/16 12:08:03;;;;;;;2.97;1.43;;;13.50;77.80;;;;;;4890734;29;20181;-91
2024/01/16 12:10:34;;;;;;;3.40;1.53;;;13.50;77.80;;;;;;4919814;29;20188;-92
2024/01/16 12:13:00;;;;;;;2.37;1.47;;;13.50;77.70;;;;;;4908772;29;20534;-92
2024/01/16 12:15:26;;;;;;;2.43;1.50;;;13.50;77.70;;;;;;4923593;29;20436;-91
2024/01/16 12:18:00;;;;;;;3.00;1.50;;;13.50;77.80;;;;;;4910160;29;20183;-92
2024/01/16 12:20:30;;;;;;;2.03;1.40;;;13.50;77.70;;;;;;4896334;29;20194;-91
2024/01/16 12:23:00;;;;;;;2.40;1.37;;;13.50;77.60;;;;;;4911494;29;20210;-91
2024/01/16 12:25:27;;;;;;;3.67;1.47;;;13.50;77.70;;;;;;4903073;29;20181;-92
2024/01/16 12:28:00;;;;;;;2.17;1.40;;;13.50;77.70;;;;;;4912054;29;20177;-92
2024/01/16 12:30:28;;;;;;;2.20;1.70;;;13.50;77.80;;;;;;4901746;29;20195;-92
2024/01/16 12:33:13;;;;;;;2.43;1.30;;;13.50;77.80;;;;;;4910425;29;20542;-92
2024/01/16 12:35:46;;;;;;;2.10;1.50;;;13.50;77.90;;;;;;4900581;29;20176;-92
2024/01/16 12:38:16;;;;;;;2.27;1.67;;;13.50;78.00;;;;;;4910872;29;20180;-91
2024/01/16 12:40:49;;;;;;;3.30;1.70;;;13.50;78.10;;;;;;4904435;29;20378;-92
2024/01/16 12:43:18;;;;;;;3.10;1.60;;;13.50;78.00;;;;;;4910186;29;20284;-92
2024/01/16 12:45:44;;;;;;;3.50;1.67;;;13.50;78.10;;;;;;4904402;29;20397;-92
2024/01/16 12:48:11;;;;;;;3.17;1.70;;;13.50;78.10;;;;;;4907049;29;20174;-91
2024/01/16 12:50:37;;;;;;;2.40;1.70;;;13.50;78.00;;;;;;4906718;29;20465;-92
2024/01/16 12:53:10;;;;;;;3.27;1.80;;;13.50;78.00;;;;;;4904205;29;20300;-92
2024/01/16 12:55:38;;;;;;;2.50;1.53;;;13.50;78.10;;;;;;4907824;29;20231;-92
2024/01/16 12:58:18;;;;;;;3.53;1.60;;;13.50;78.00;;;;;;4902146;29;20424;-92
2024/01/16 13:00:48;;;;;;;2.37;1.47;;;13.50;78.10;;;;;;4905400;29;20470;-92
2024/01/16 13:03:26;;;;;;;3.57;1.70;;;13.50;78.10;;;;;;4902139;29;20661;-91
2024/01/16 13:06:00;;;;;;;2.63;1.37;;;13.50;78.00;;;;;;4904892;29;20225;-92
2024/01/16 13:08:26;;;;;;;2.87;1.60;;;13.40;78.00;;;;;;4902957;29;20181;-92
2024/01/16 13:11:05;;;;;;;2.27;1.43;;;13.40;78.00;;;;;;4907817;29;20175;-92
2024/01/16 13:13:32;;;;;;;1.83;1.40;;;13.40;77.90;;;;;;4902038;29;20249;-93
2024/01/16 13:15:59;;;;;;;1.97;1.57;;;13.40;78.00;;;;;;4907490;29;20196;-91
2024/01/16 13:18:33;;;;;;;2.90;1.57;;;13.40;78.00;;;;;;4899378;29;20186;-91
2024/01/16 13:21:12;;;;;;;2.83;1.50;;;13.40;77.90;;;;;;4906717;29;20198;-92
2024/01/16 13:23:38;;;;;;;3.23;1.70;;;13.40;78.00;;;;;;4901494;29;20180;-92
2024/01/16 13:26:04;;;;;;;1.60;1.40;;;13.40;78.00;;;;;;4909202;29;20203;-92
2024/01/16 13:28:30;;;;;;;2.33;1.50;;;13.40;78.00;;;;;;4900388;29;20537;-91
2024/01/16 13:30:56;;;;;;;2.03;1.50;;;13.40;78.00;;;;;;4913479;29;20174;-92
2024/01/16 13:33:29;;;;;;;2.77;1.50;;;13.40;78.00;;;;;;4900584;29;20190;-92
2024/01/16 13:35:55;;;;;;;2.83;2.10;;;13.40;78.00;;;;;;4912607;29;20245;-92
2024/01/16 13:38:21;;;;;;;2.40;1.60;;;13.40;78.10;;;;;;4898624;29;20190;-92
2024/01/16 13:40:47;;;;;;;2.70;1.80;;;13.40;77.90;;;;;;4894720;29;20184;-92
2024/01/16 13:43:14;;;;;;;3.83;1.77;;;13.40;78.00;;;;;;4907604;29;20176;-91
2024/01/16 13:45:41;;;;;;;3.20;1.73;;;13.50;78.40;;;;;;4893120;29;20186;-92
2024/01/16 13:48:07;;;;;;;5.00;1.60;;;13.50;78.50;;;;;;4901502;29;20213;-91
2024/01/16 13:50:37;;;;;;;2.90;1.60;;;13.50;78.30;;;;;;4893726;29;20435;-91
2024/01/16 13:53:03;;;;;;;3.20;1.70;;;13.50;78.00;;;;;;4900702;29;20177;-92
2024/01/16 13:55:31;;;;;;;4.67;1.90;;;13.50;77.80;;;;;;4895613;29;20395;-91
2024/01/16 13:57:58;;;;;;;3.30;1.70;;;13.60;77.80;;;;;;4897800;29;20183;-92
2024/01/16 14:00:24;;;;;;;3.33;1.53;;;13.60;77.50;;;;;;4894283;29;20179;-91
2024/01/16 14:02:50;;;;;;;4.13;1.90;;;13.50;77.20;;;;;;4894508;29;20199;-91
2024/01/16 14:05:19;;;;;;;2.70;1.90;;;13.50;77.10;;;;;;4902934;29;20176;-92
2024/01/16 14:07:46;;;;;;;3.47;1.90;;;13.50;77.20;;;;;;4908227;29;20171;-92
2024/01/16 14:10:13;;;;;;;4.37;1.80;;;13.50;77.10;;;;;;4898616;29;20471;-91
2024/01/16 14:12:44;;;;;;;1.87;1.23;;;13.50;77.10;;;;;;4906182;29;20176;-92
2024/01/16 14:15:22;;;;;;;2.83;1.50;;;13.50;77.10;;;;;;4899867;29;20433;-92
2024/01/16 14:17:49;;;;;;;3.07;1.63;;;13.50;77.10;;;;;;4890395;29;20181;-92
2024/01/16 14:20:16;;;;;;;2.27;1.50;;;13.50;77.10;;;;;;4901694;29;20299;-92